createdAt,value
2018-09-28T00:01:58.452Z,63.50
2018-09-28T00:04:26.994Z,63.70
2018-09-28T00:06:55.687Z,63.50
2018-09-28T00:09:24.274Z,63.40
2018-09-28T00:11:56.532Z,62.70
2018-09-28T00:14:25.117Z,63.20
2018-09-28T00:16:53.775Z,63.30
2018-09-28T00:19:22.536Z,64.30
2018-09-28T00:21:51.028Z,63.90
2018-09-28T00:24:19.669Z,64.30
2018-09-28T00:26:48.266Z,63.90
2018-09-28T00:29:17.192Z,64.50
2018-09-28T00:31:45.704Z,63.90
2018-09-28T00:34:14.214Z,64.80
2018-09-28T00:36:42.955Z,64.90
2018-09-28T00:39:11.795Z,64.40
2018-09-28T00:41:40.312Z,63.90
2018-09-28T00:44:08.715Z,64.50
2018-09-28T00:46:37.629Z,66.50
2018-09-28T00:49:06.497Z,68.10
2018-09-28T00:51:34.999Z,68.80
2018-09-28T00:54:03.499Z,70.60
2018-09-28T00:56:32.263Z,72.30
2018-09-28T00:59:01.231Z,70.00
2018-09-28T01:01:30.012Z,72.60
2018-09-28T01:03:58.581Z,73.10
2018-09-28T01:06:27.404Z,74.40
2018-09-28T01:08:56.696Z,76.60
2018-09-28T01:11:28.803Z,78.30
2018-09-28T01:13:57.496Z,75.90
2018-09-28T01:16:26.091Z,77.30
2018-09-28T01:18:54.892Z,76.70
2018-09-28T01:21:23.388Z,77.30
2018-09-28T01:23:51.873Z,75.10
2018-09-28T01:26:20.310Z,75.10
2018-09-28T01:28:51.056Z,77.70
2018-09-28T01:31:19.650Z,76.20
2018-09-28T01:33:48.158Z,74.50
2018-09-28T01:36:16.784Z,74.30
2018-09-28T01:38:45.747Z,74.30
2018-09-28T01:41:14.257Z,72.90
2018-09-28T01:43:42.822Z,74.70
2018-09-28T01:46:15.615Z,73.80
2018-09-28T01:48:44.376Z,74.70
2018-09-28T01:51:14.442Z,73.40
2018-09-28T01:53:43.156Z,74.00
2018-09-28T01:56:11.966Z,73.50
2018-09-28T01:58:40.502Z,74.00
2018-09-28T02:01:09.072Z,71.50
2018-09-28T02:03:39.956Z,70.70
2018-09-28T02:06:08.511Z,71.00
2018-09-28T02:08:37.478Z,71.20
2018-09-28T02:11:06.139Z,70.60
2018-09-28T02:13:34.697Z,71.00
2018-09-28T02:16:04.510Z,70.40
2018-09-28T02:18:33.101Z,71.00
2018-09-28T02:21:01.829Z,71.90
2018-09-28T02:23:30.452Z,72.30
2018-09-28T02:25:59.072Z,70.80
2018-09-28T02:28:27.780Z,72.00
2018-09-28T02:30:56.838Z,71.30
2018-09-28T02:33:25.430Z,70.60
2018-09-28T02:35:54.036Z,69.80
2018-09-28T02:38:22.492Z,70.20
2018-09-28T02:40:52.279Z,70.20
2018-09-28T02:43:20.769Z,70.80
2018-09-28T02:45:49.707Z,70.10
2018-09-28T02:48:18.163Z,69.50
2018-09-28T02:53:19.148Z,69.70
2018-09-28T02:55:48.974Z,71.30
2018-09-28T02:58:17.587Z,70.80
2018-09-28T03:00:46.863Z,70.90
2018-09-28T03:05:44.031Z,71.70
2018-09-28T03:08:12.519Z,72.20
2018-09-28T03:10:40.899Z,74.00
2018-09-28T03:13:09.502Z,72.10
2018-09-28T03:15:37.994Z,72.10
2018-09-28T03:18:06.796Z,71.30
2018-09-28T03:20:35.373Z,71.10
2018-09-28T03:23:03.777Z,71.00
2018-09-28T03:25:32.097Z,70.40
2018-09-28T03:28:00.797Z,70.60
2018-09-28T03:30:29.291Z,70.80
2018-09-28T03:32:57.590Z,70.80
2018-09-28T03:35:25.953Z,70.90
2018-09-28T03:37:54.760Z,71.00
2018-09-28T03:40:23.129Z,71.60
2018-09-28T03:42:51.503Z,72.10
2018-09-28T03:45:20.098Z,71.60
2018-09-28T03:47:49.360Z,71.50
2018-09-28T03:50:17.953Z,71.80
2018-09-28T03:52:46.305Z,72.00
2018-09-28T03:55:14.767Z,71.60
2018-09-28T03:57:43.244Z,71.40
2018-09-28T04:00:12.197Z,72.90
2018-09-28T04:02:41.217Z,74.50
2018-09-28T04:05:10.491Z,75.30
2018-09-28T04:07:38.901Z,73.70
2018-09-28T04:10:08.342Z,74.10
2018-09-28T04:12:36.862Z,74.80
2018-09-28T04:15:05.427Z,73.30
2018-09-28T04:17:33.754Z,73.50
2018-09-28T04:20:02.198Z,72.50
2018-09-28T04:22:30.639Z,72.10
2018-09-28T04:24:59.230Z,73.70
2018-09-28T04:27:27.757Z,74.00
2018-09-28T04:29:56.322Z,72.90
2018-09-28T04:32:24.782Z,72.70
2018-09-28T04:34:53.253Z,72.90
2018-09-28T04:37:21.649Z,74.80
2018-09-28T04:39:50.018Z,72.40
2018-09-28T04:42:18.449Z,72.80
2018-09-28T04:44:47.053Z,75.20
2018-09-28T04:47:15.606Z,73.80
2018-09-28T04:49:44.091Z,74.10
2018-09-28T04:52:12.489Z,75.90
2018-09-28T04:54:40.865Z,75.20
2018-09-28T04:57:09.316Z,75.30
2018-09-28T04:59:37.752Z,78.50
2018-09-28T05:02:06.150Z,74.30
2018-09-28T05:04:34.506Z,76.90
2018-09-28T05:07:02.841Z,73.50
2018-09-28T05:09:31.360Z,74.30
2018-09-28T05:11:59.873Z,76.80
2018-09-28T05:14:28.467Z,73.00
2018-09-28T05:16:56.946Z,72.70
2018-09-28T05:19:26.381Z,72.50
2018-09-28T05:21:54.884Z,72.90
2018-09-28T05:24:23.348Z,72.20
2018-09-28T05:26:52.313Z,71.70
2018-09-28T05:29:20.798Z,71.30
2018-09-28T05:31:49.224Z,72.50
2018-09-28T05:34:17.659Z,70.90
2018-09-28T05:36:46.401Z,70.70
2018-09-28T05:39:15.829Z,71.90
2018-09-28T05:41:45.892Z,70.90
2018-09-28T05:44:14.339Z,70.10
2018-09-28T05:46:42.782Z,70.40
2018-09-28T05:49:11.227Z,71.30
2018-09-28T05:51:39.621Z,69.80
2018-09-28T05:54:07.927Z,69.90
2018-09-28T05:56:36.297Z,69.90
2018-09-28T05:59:10.223Z,70.90
2018-09-28T06:01:43.980Z,71.10
2018-09-28T06:04:17.615Z,70.30
2018-09-28T06:06:45.951Z,70.00
2018-09-28T06:09:14.403Z,71.70
2018-09-28T06:11:42.883Z,72.30
2018-09-28T06:14:11.364Z,69.00
2018-09-28T06:16:40.109Z,69.50
2018-09-28T06:19:08.549Z,71.10
2018-09-28T06:21:37.058Z,70.30
2018-09-28T06:24:05.552Z,70.30
2018-09-28T06:26:34.619Z,71.30
2018-09-28T06:29:03.022Z,68.90
2018-09-28T06:31:31.560Z,70.30
2018-09-28T06:33:59.970Z,69.40
2018-09-28T06:36:28.457Z,69.70
2018-09-28T06:38:56.851Z,69.60
2018-09-28T06:41:25.373Z,68.70
2018-09-28T06:43:54.282Z,72.00
2018-09-28T06:46:22.603Z,69.90
2018-09-28T06:48:51.812Z,71.70
2018-09-28T06:51:20.481Z,74.90
2018-09-28T06:53:49.012Z,72.50
2018-09-28T06:56:17.429Z,70.50
2018-09-28T06:58:45.808Z,69.00
2018-09-28T07:01:14.350Z,71.40
2018-09-28T07:03:42.870Z,71.90
2018-09-28T07:06:11.445Z,68.20
2018-09-28T07:08:39.872Z,70.60
2018-09-28T07:11:08.721Z,69.40
2018-09-28T07:13:37.202Z,67.40
2018-09-28T07:16:05.856Z,67.10
2018-09-28T07:18:34.271Z,70.40
2018-09-28T07:21:02.621Z,68.00
2018-09-28T07:23:31.058Z,70.90
2018-09-28T07:26:00.556Z,67.60
2018-09-28T07:28:29.354Z,67.90
2018-09-28T07:30:57.750Z,66.20
2018-09-28T07:33:26.408Z,67.60
2018-09-28T07:35:54.772Z,66.40
2018-09-28T07:38:23.218Z,67.20
2018-09-28T07:40:51.603Z,66.20
2018-09-28T07:43:20.187Z,70.80
2018-09-28T07:45:48.641Z,68.80
2018-09-28T07:48:17.220Z,64.80
2018-09-28T07:50:45.732Z,66.30
2018-09-28T07:53:14.142Z,65.60
2018-09-28T07:55:42.983Z,64.10
2018-09-28T07:58:11.466Z,63.40
2018-09-28T08:00:39.912Z,62.30
2018-09-28T08:03:08.269Z,62.90
2018-09-28T08:05:36.636Z,61.30
2018-09-28T08:08:05.079Z,61.90
2018-09-28T08:10:33.637Z,62.30
2018-09-28T08:13:02.064Z,65.80
2018-09-28T08:15:30.430Z,64.10
2018-09-28T08:17:58.988Z,60.80
2018-09-28T08:20:27.616Z,62.70
2018-09-28T08:22:56.238Z,59.20
2018-09-28T08:25:24.637Z,61.30
2018-09-28T08:27:53.266Z,59.50
2018-09-28T08:30:21.793Z,62.90
2018-09-28T08:32:50.375Z,63.30
2018-09-28T08:35:18.873Z,66.80
2018-09-28T08:37:47.384Z,61.00
2018-09-28T08:40:16.011Z,60.80
2018-09-28T08:42:44.572Z,59.00
2018-09-28T08:45:13.068Z,59.60
2018-09-28T08:47:41.533Z,61.40
2018-09-28T08:50:09.932Z,61.90
2018-09-28T08:52:38.619Z,62.00
2018-09-28T08:55:07.241Z,63.90
2018-09-28T08:57:35.728Z,59.40
2018-09-28T09:00:04.625Z,57.20
2018-09-28T09:02:33.052Z,57.10
2018-09-28T09:05:01.549Z,55.70
2018-09-28T09:07:30.234Z,53.90
2018-09-28T09:09:58.699Z,54.80
2018-09-28T09:12:27.235Z,54.00
2018-09-28T09:14:55.825Z,52.30
2018-09-28T09:17:24.479Z,51.40
2018-09-28T09:19:52.921Z,53.00
2018-09-28T09:22:21.361Z,52.80
2018-09-28T09:24:49.712Z,51.90
2018-09-28T09:27:18.172Z,52.10
2018-09-28T09:29:46.511Z,52.60
2018-09-28T09:32:15.297Z,53.30
2018-09-28T09:34:43.656Z,54.10
2018-09-28T09:37:12.031Z,53.90
2018-09-28T09:39:40.448Z,53.70
2018-09-28T09:42:08.941Z,51.20
2018-09-28T09:44:37.306Z,52.10
2018-09-28T09:47:05.689Z,52.00
2018-09-28T09:49:34.029Z,51.00
2018-09-28T09:52:02.381Z,50.20
2018-09-28T09:54:30.657Z,49.50
2018-09-28T09:56:59.031Z,51.00
2018-09-28T09:59:27.406Z,49.00
2018-09-28T10:02:01.309Z,51.90
2018-09-28T10:04:29.889Z,49.50
2018-09-28T10:07:02.240Z,48.80
2018-09-28T10:09:31.105Z,49.40
2018-09-28T10:11:59.594Z,48.00
2018-09-28T10:14:27.997Z,51.60
2018-09-28T10:16:56.459Z,50.10
2018-09-28T10:19:24.876Z,50.20
2018-09-28T10:21:53.118Z,51.80
2018-09-28T10:24:21.712Z,49.60
2018-09-28T10:26:50.148Z,48.80
2018-09-28T10:29:18.579Z,49.50
2018-09-28T10:31:47.002Z,48.90
2018-09-28T10:36:46.451Z,46.80
2018-09-28T10:39:15.413Z,43.40
2018-09-28T10:41:43.971Z,45.40
2018-09-28T10:44:12.568Z,45.90
2018-09-28T10:46:41.180Z,43.30
2018-09-28T10:49:11.972Z,44.40
2018-09-28T10:51:40.877Z,46.00
2018-09-28T10:54:09.348Z,41.70
2018-09-28T10:56:37.973Z,44.00
2018-09-28T10:59:06.595Z,42.50
2018-09-28T11:01:35.255Z,42.80
2018-09-28T11:04:03.766Z,43.70
2018-09-28T11:06:32.295Z,43.60
2018-09-28T11:09:01.166Z,42.40
2018-09-28T11:11:29.656Z,39.80
2018-09-28T11:13:58.229Z,38.60
2018-09-28T11:16:26.765Z,35.10
2018-09-28T11:18:58.452Z,37.00
2018-09-28T11:21:27.303Z,28.00
2018-09-28T11:23:55.970Z,30.90
2018-09-28T11:26:24.553Z,30.30
2018-09-28T11:28:53.015Z,34.00
2018-09-28T11:31:21.695Z,32.10
2018-09-28T11:33:50.303Z,31.80
2018-09-28T11:36:19.015Z,30.20
2018-09-28T11:38:47.611Z,30.70
2018-09-28T11:41:16.136Z,31.80
2018-09-28T11:43:44.793Z,34.30
2018-09-28T11:46:13.377Z,32.90
2018-09-28T11:48:41.969Z,33.50
2018-09-28T11:51:20.408Z,32.40
2018-09-28T11:53:48.901Z,33.30
2018-09-28T11:56:21.881Z,35.70
2018-09-28T11:58:50.547Z,36.00
2018-09-28T12:01:19.336Z,36.30
2018-09-28T12:03:48.070Z,37.00
2018-09-28T12:06:19.730Z,37.40
2018-09-28T12:08:48.261Z,36.10
2018-09-28T12:11:16.874Z,33.30
2018-09-28T12:13:45.666Z,32.70
2018-09-28T12:16:14.893Z,32.10
2018-09-28T12:18:44.545Z,33.10
2018-09-28T12:21:13.191Z,32.30
2018-09-28T12:23:41.986Z,32.20
2018-09-28T12:26:19.008Z,30.80
2018-09-28T12:28:49.806Z,28.10
2018-09-28T12:31:18.496Z,25.80
2018-09-28T12:33:47.117Z,26.60
2018-09-28T12:36:15.645Z,26.20
2018-09-28T12:38:48.365Z,24.70
2018-09-28T12:41:16.989Z,26.50
2018-09-28T12:43:45.662Z,27.00
2018-09-28T12:46:14.346Z,27.50
2018-09-28T12:48:46.770Z,28.40
2018-09-28T12:51:16.401Z,29.40
2018-09-28T12:53:45.147Z,30.00
2018-09-28T12:56:14.064Z,30.70
2018-09-28T12:58:42.793Z,30.80
2018-09-28T13:01:11.567Z,31.30
2018-09-28T13:03:41.133Z,33.10
2018-09-28T13:06:09.777Z,32.10
2018-09-28T13:08:38.427Z,33.70
2018-09-28T13:11:07.238Z,33.30
2018-09-28T13:13:35.807Z,32.50
2018-09-28T13:16:04.313Z,31.20
2018-09-28T13:18:33.069Z,31.40
2018-09-28T13:21:01.597Z,31.50
2018-09-28T13:23:30.153Z,31.40
2018-09-28T13:25:59.806Z,30.00
2018-09-28T13:28:32.114Z,29.20
2018-09-28T13:31:00.871Z,29.40
2018-09-28T13:33:29.411Z,30.30
2018-09-28T13:35:58.013Z,30.70
2018-09-28T13:38:26.815Z,32.10
2018-09-28T13:40:56.441Z,30.90
2018-09-28T13:43:25.327Z,27.00
2018-09-28T13:45:55.050Z,28.50
2018-09-28T13:48:24.780Z,26.70
2018-09-28T13:50:53.353Z,26.00
2018-09-28T13:55:51.214Z,24.60
2018-09-28T13:58:19.676Z,23.80
2018-09-28T14:00:48.153Z,22.60
2018-09-28T14:03:16.540Z,22.80
2018-09-28T14:05:44.898Z,21.50
2018-09-28T14:08:13.414Z,21.90
2018-09-28T14:10:41.935Z,22.00
2018-09-28T14:13:10.288Z,22.60
2018-09-28T14:15:38.683Z,24.00
2018-09-28T14:18:07.200Z,24.80
2018-09-28T14:20:35.869Z,25.30
2018-09-28T14:23:04.248Z,24.70
2018-09-28T14:25:32.724Z,23.20
2018-09-28T14:28:01.193Z,22.60
2018-09-28T14:30:29.554Z,24.50
2018-09-28T14:32:57.922Z,21.90
2018-09-28T14:35:26.409Z,22.50
2018-09-28T14:37:54.900Z,22.20
2018-09-28T14:40:23.407Z,23.00
2018-09-28T14:42:51.914Z,24.40
2018-09-28T14:45:20.267Z,26.50
2018-09-28T14:47:48.715Z,26.90
2018-09-28T14:50:17.244Z,27.40
2018-09-28T14:53:01.439Z,29.30
2018-09-28T14:55:43.927Z,28.10
2018-09-28T14:58:28.542Z,28.80
2018-09-28T15:00:57.734Z,29.80
2018-09-28T15:03:26.050Z,33.90
2018-09-28T15:05:54.588Z,30.00
2018-09-28T15:08:23.209Z,33.50
2018-09-28T15:10:51.583Z,35.20
2018-09-28T15:13:20.044Z,33.50
2018-09-28T15:15:48.434Z,33.50
2018-09-28T15:18:16.855Z,37.80
2018-09-28T15:20:45.206Z,36.30
2018-09-28T15:23:14.732Z,35.70
2018-09-28T15:25:43.248Z,34.30
2018-09-28T15:28:11.669Z,34.90
2018-09-28T15:30:40.308Z,35.00
2018-09-28T15:33:08.942Z,38.50
2018-09-28T15:35:38.517Z,35.70
2018-09-28T15:38:12.126Z,36.80
2018-09-28T15:40:44.248Z,36.70
2018-09-28T15:43:13.244Z,36.80
2018-09-28T15:45:42.143Z,38.80
2018-09-28T15:48:12.211Z,39.90
2018-09-28T15:50:42.299Z,39.90
2018-09-28T15:53:11.478Z,40.60
2018-09-28T15:55:46.269Z,40.70
2018-09-28T15:58:15.337Z,41.20
2018-09-28T16:00:44.711Z,40.70
2018-09-28T16:03:16.686Z,39.20
2018-09-28T16:05:59.477Z,38.80
2018-09-28T16:14:14.643Z,43.50
2018-09-28T16:16:43.426Z,46.50
2018-09-28T16:19:11.864Z,42.50
2018-09-28T16:21:40.500Z,41.10
2018-09-28T16:24:09.116Z,41.70
2018-09-28T16:26:37.692Z,40.20
2018-09-28T16:29:06.127Z,42.00
2018-09-28T16:31:34.722Z,42.40
2018-09-28T16:34:03.164Z,40.80
2018-09-28T16:36:31.698Z,40.80
2018-09-28T16:39:00.160Z,41.00
2018-09-28T16:41:28.579Z,41.60
2018-09-28T16:43:56.985Z,41.80
2018-09-28T16:46:25.368Z,41.20
2018-09-28T16:48:53.742Z,41.40
2018-09-28T16:51:22.199Z,41.30
2018-09-28T16:53:51.036Z,43.00
2018-09-28T16:56:19.601Z,45.00
2018-09-28T16:58:48.090Z,45.20
2018-09-28T17:01:16.422Z,45.00
2018-09-28T17:03:44.850Z,44.80
2018-09-28T17:06:13.368Z,43.30
2018-09-28T17:08:41.713Z,46.20
2018-09-28T17:11:11.028Z,45.30
2018-09-28T17:13:39.489Z,43.30
2018-09-28T17:16:09.501Z,43.30
2018-09-28T17:18:37.860Z,44.70
2018-09-28T17:21:06.309Z,43.60
2018-09-28T17:23:34.855Z,44.30
2018-09-28T17:26:03.384Z,43.10
2018-09-28T17:28:31.931Z,43.70
2018-09-28T17:31:00.262Z,43.90
2018-09-28T17:33:28.836Z,46.90
2018-09-28T17:36:01.065Z,44.50
2018-09-28T17:38:29.573Z,45.30
2018-09-28T17:40:58.056Z,45.80
2018-09-28T17:43:26.744Z,45.70
2018-09-28T17:46:04.680Z,46.20
2018-09-28T17:48:33.816Z,45.60
2018-09-28T17:51:02.169Z,46.50
2018-09-28T17:53:35.673Z,46.90
2018-09-28T17:56:04.435Z,47.70
2018-09-28T17:58:35.352Z,46.60
2018-09-28T18:01:03.743Z,46.90
2018-09-28T18:03:32.765Z,47.10
2018-09-28T18:06:07.029Z,47.80
2018-09-28T18:08:35.654Z,46.80
2018-09-28T18:11:04.177Z,47.70
2018-09-28T18:13:32.734Z,47.20
2018-09-28T18:16:01.096Z,48.40
2018-09-28T18:18:30.563Z,48.10
2018-09-28T18:20:59.073Z,48.00
2018-09-28T18:23:27.561Z,47.90
2018-09-28T18:25:56.005Z,47.90
2018-09-28T18:28:24.671Z,48.20
2018-09-28T18:30:53.083Z,48.40
2018-09-28T18:33:21.657Z,48.40
2018-09-28T18:35:55.801Z,48.00
2018-09-28T18:38:24.281Z,48.70
2018-09-28T18:40:54.853Z,48.50
2018-09-28T18:43:23.598Z,48.40
2018-09-28T18:45:52.402Z,49.20
2018-09-28T18:48:20.949Z,48.40
2018-09-28T18:50:50.762Z,47.70
2018-09-28T18:53:19.644Z,48.40
2018-09-28T18:55:48.080Z,48.60
2018-09-28T18:58:16.626Z,48.30
2018-09-28T19:00:45.119Z,49.70
2018-09-28T19:03:13.676Z,49.30
2018-09-28T19:05:42.194Z,48.90
2018-09-28T19:08:10.645Z,48.90
2018-09-28T19:10:39.190Z,50.30
2018-09-28T19:13:08.001Z,49.70
2018-09-28T19:15:36.436Z,49.70
2018-09-28T19:18:04.978Z,49.20
2018-09-28T19:20:33.686Z,49.30
2018-09-28T19:23:04.054Z,49.50
2018-09-28T19:25:33.331Z,49.90
2018-09-28T19:28:02.538Z,50.30
2018-09-28T19:30:31.527Z,50.00
2018-09-28T19:32:59.908Z,50.40
2018-09-28T19:35:28.283Z,49.60
2018-09-28T19:37:56.878Z,49.80
2018-09-28T19:40:25.319Z,50.10
2018-09-28T19:42:53.780Z,50.50
2018-09-28T19:45:22.335Z,50.20
2018-09-28T19:47:50.859Z,50.00
2018-09-28T19:50:19.561Z,50.30
2018-09-28T19:52:48.414Z,50.10
2018-09-28T19:55:16.994Z,50.30
2018-09-28T19:57:45.450Z,50.10
2018-09-28T20:00:15.788Z,51.20
2018-09-28T20:02:44.194Z,50.00
2018-09-28T20:05:12.622Z,50.40
2018-09-28T20:07:41.180Z,50.20
2018-09-28T20:10:09.818Z,50.50
2018-09-28T20:12:38.281Z,50.40
2018-09-28T20:15:06.763Z,50.90
2018-09-28T20:17:35.296Z,50.30
2018-09-28T20:20:03.819Z,50.00
2018-09-28T20:22:32.291Z,50.50
2018-09-28T20:25:00.660Z,49.70
2018-09-28T20:27:29.119Z,50.50
2018-09-28T20:29:57.764Z,50.80
2018-09-28T20:32:26.278Z,50.40
2018-09-28T20:34:54.670Z,50.30
2018-09-28T20:37:23.109Z,50.10
2018-09-28T20:39:51.807Z,50.30
2018-09-28T20:42:20.269Z,50.20
2018-09-28T20:44:48.809Z,50.50
2018-09-28T20:47:18.188Z,50.60
2018-09-28T20:49:46.630Z,50.90
2018-09-28T20:52:15.085Z,50.80
2018-09-28T20:54:44.420Z,50.70
2018-09-28T20:57:13.033Z,50.80
2018-09-28T20:59:41.508Z,51.40
2018-09-28T21:02:09.944Z,51.50
2018-09-28T21:04:38.823Z,51.30
2018-09-28T21:07:07.271Z,51.10
2018-09-28T21:09:35.746Z,51.60
2018-09-28T21:12:04.229Z,51.60
2018-09-28T21:14:32.646Z,51.60
2018-09-28T21:17:01.142Z,52.30
2018-09-28T21:19:29.580Z,51.50
2018-09-28T21:21:58.046Z,51.90
2018-09-28T21:24:26.391Z,52.00
2018-09-28T21:26:54.932Z,51.70
2018-09-28T21:29:23.433Z,51.60
2018-09-28T21:31:51.853Z,52.00
2018-09-28T21:34:20.328Z,52.10
2018-09-28T21:36:48.791Z,52.40
2018-09-28T21:39:17.142Z,51.60
2018-09-28T21:41:45.508Z,52.30
2018-09-28T21:44:13.939Z,51.80
2018-09-28T21:46:42.399Z,52.20
2018-09-28T21:49:10.982Z,52.30
2018-09-28T21:51:39.529Z,52.40
2018-09-28T21:54:07.976Z,52.30
2018-09-28T21:56:36.572Z,52.10
2018-09-28T21:59:04.909Z,52.60
2018-09-28T22:01:33.282Z,52.50
2018-09-28T22:04:01.795Z,52.90
2018-09-28T22:06:30.157Z,52.50
2018-09-28T22:08:58.606Z,52.60
2018-09-28T22:11:27.019Z,52.90
2018-09-28T22:13:55.568Z,52.70
2018-09-28T22:16:23.895Z,53.00
2018-09-28T22:18:52.249Z,53.00
2018-09-28T22:21:20.679Z,53.10
2018-09-28T22:23:49.115Z,53.60
2018-09-28T22:26:17.482Z,53.00
2018-09-28T22:28:45.825Z,53.30
2018-09-28T22:31:14.309Z,52.80
2018-09-28T22:33:42.748Z,53.10
2018-09-28T22:36:11.068Z,53.80
2018-09-28T22:38:39.392Z,53.80
2018-09-28T22:41:07.752Z,54.50
2018-09-28T22:43:36.208Z,53.90
2018-09-28T22:46:04.669Z,54.30
2018-09-28T22:48:33.190Z,54.10
2018-09-28T22:51:01.643Z,54.70
2018-09-28T22:53:29.935Z,54.20
2018-09-28T22:55:58.218Z,55.00
2018-09-28T22:58:26.630Z,55.70
2018-09-28T23:00:55.029Z,54.60
2018-09-28T23:03:23.423Z,54.80
2018-09-28T23:05:51.842Z,55.10
2018-09-28T23:08:20.224Z,55.20
2018-09-28T23:10:48.815Z,54.80
2018-09-28T23:13:17.212Z,54.80
2018-09-28T23:15:45.566Z,55.00
2018-09-28T23:18:13.850Z,54.90
2018-09-28T23:20:42.197Z,55.30
2018-09-28T23:23:10.715Z,55.60
2018-09-28T23:25:39.056Z,55.10
2018-09-28T23:28:07.389Z,55.90
2018-09-28T23:30:35.768Z,55.30
2018-09-28T23:33:05.349Z,55.70
2018-09-28T23:35:33.726Z,55.50
2018-09-28T23:38:02.079Z,55.90
2018-09-28T23:40:30.442Z,55.80
2018-09-28T23:42:58.809Z,56.20
2018-09-28T23:45:27.099Z,56.40
2018-09-28T23:47:56.282Z,56.00
2018-09-28T23:50:24.661Z,55.90
2018-09-28T23:52:53.078Z,56.10
2018-09-28T23:55:21.416Z,56.10
2018-09-28T23:57:49.814Z,57.00
